Elton — AEOA — position and weather

sailwx.info

Track history (hours):
 
Tides and Currents Weather Stations Pressure Air Temp Water Temp Dewpoint Dewpoint Depression Visibility Wind Speed Wind Dir Waves Ship Positions

Elton

Last reported at 2018-Feb-23 20:00 UTC. Time now 2018-Feb-23 20:23 UTC.
Position N 46°12' W 123°48'.

Length 20 m.

MMSI: 369970121.

Date/timePositionNaut miles runAvg speedWind from/ knotsBaromVisibWave heightAir tempDewpointWater temp
2018-Feb-23 20:00N 46°12' W 123°48'0 0.0
2018-Feb-23 19:30N 46°12' W 123°48'0 0.0
2018-Feb-23 19:00N 46°12' W 123°48'0 0.0
2018-Feb-23 18:30N 46°12' W 123°48'0 0.0
2018-Feb-23 18:00N 46°12' W 123°48'0 0.0
2018-Feb-23 17:30N 46°12' W 123°48'0 0.0
2018-Feb-23 17:00N 46°12' W 123°48'0 0.0
2018-Feb-23 16:30N 46°12' W 123°48'0 0.0
2018-Feb-23 16:00N 46°12' W 123°48'0 0.0
2018-Feb-23 15:30N 46°12' W 123°48'0 0.0
2018-Feb-23 15:00N 46°12' W 123°48'0 0.0
2018-Feb-23 14:30N 46°12' W 123°48'0 0.0
2018-Feb-23 14:00N 46°12' W 123°48'0 0.0
2018-Feb-23 13:30N 46°12' W 123°48'0 0.0
2018-Feb-23 13:00N 46°12' W 123°48'0 0.0
2018-Feb-23 12:30N 46°12' W 123°48'0 0.0
2018-Feb-23 12:00N 46°12' W 123°48'0 0.0
2018-Feb-23 11:30N 46°12' W 123°48'0 0.0
2018-Feb-23 10:47N 46°12' W 123°48'0 0.0
2018-Feb-23 10:23N 46°12' W 123°48'0 0.0
2018-Feb-23 10:00N 46°12' W 123°48'0 0.0
2018-Feb-23 09:15N 46°12' W 123°48'0 0.0
2018-Feb-23 09:00N 46°12' W 123°48'0 0.0
2018-Feb-23 08:30N 46°12' W 123°48'0 0.0
2018-Feb-23 08:00N 46°12' W 123°48'0 0.0
2018-Feb-23 07:16N 46°12' W 123°48'0 0.0
2018-Feb-23 07:00N 46°12' W 123°48'0 0.0
2018-Feb-23 06:27N 46°12' W 123°48'0 0.0
2018-Feb-23 06:00N 46°12' W 123°48'0 0.0
2018-Feb-23 05:30N 46°12' W 123°48'0 0.0
2018-Feb-23 05:00N 46°12' W 123°48'0 0.0
2018-Feb-23 04:30N 46°12' W 123°48'0 0.0
2018-Feb-23 04:00N 46°12' W 123°48'0 0.0
2018-Feb-23 03:27N 46°12' W 123°48'0 0.0
2018-Feb-23 03:00N 46°12' W 123°48'0 0.0
2018-Feb-23 02:29N 46°12' W 123°48'0 0.0
2018-Feb-23 02:00N 46°12' W 123°48'0 0.0
2018-Feb-23 01:16N 46°12' W 123°48'0 0.0
2018-Feb-23 01:00N 46°12' W 123°48'0 0.0
2018-Feb-23 00:30N 46°12' W 123°48'0 0.0
2018-Feb-22 23:54N 46°12' W 123°48'0 0.0
2018-Feb-22 23:30N 46°12' W 123°48'0 0.0
2018-Feb-22 23:01N 46°12' W 123°48'0 0.0
2018-Feb-22 22:30N 46°12' W 123°48'0 0.0
2018-Feb-22 22:00N 46°12' W 123°48'0 0.0
2018-Feb-22 21:25N 46°12' W 123°48'0 0.1
2018-Feb-22 21:00N 46°12' W 123°48'713.7
2018-Feb-22 20:30N 46°15' W 123°40'814.8
2018-Feb-22 19:57N 46°16' W 123°28'512.1
2018-Feb-22 19:30N 46°11' W 123°25'2 2.9
2018-Feb-22 18:39N 46°09' W 123°23'1 8.8
2018-Feb-22 18:31N 46°09' W 123°21'2 3.8
2018-Feb-22 18:01N 46°09' W 123°24'1 2.7
2018-Feb-22 17:30N 46°10' W 123°25'1 1.8
2018-Feb-22 17:00N 46°10' W 123°24'2 4.3
2018-Feb-22 16:31N 46°09' W 123°22'3 6.4
2018-Feb-22 16:00N 46°11' W 123°25'611.4
2018-Feb-22 15:30N 46°16' W 123°28'612.5
2018-Feb-22 15:00N 46°15' W 123°37'612.1
2018-Feb-22 14:30N 46°13' W 123°45'3 5.0
2018-Feb-22 14:01N 46°12' W 123°48'22591495.7
2018-Feb-22 12:30N 34°42' W 076°41'22594342.7
2018-Feb-22 11:59N 46°12' W 123°48'0 0.0
2018-Feb-22 11:29N 46°12' W 123°48'0 0.0
2018-Feb-22 10:59N 46°12' W 123°48'0 0.0
2018-Feb-22 10:29N 46°12' W 123°48'0 0.0
2018-Feb-22 09:59N 46°12' W 123°48'0 0.0
2018-Feb-22 09:29N 46°12' W 123°48'0 0.0
2018-Feb-22 08:59N 46°12' W 123°48'0 0.0
2018-Feb-22 08:26N 46°12' W 123°48'0 0.0
2018-Feb-22 07:59N 46°12' W 123°48'0 0.0
2018-Feb-22 07:26N 46°12' W 123°48'0 0.0
2018-Feb-22 06:59N 46°12' W 123°48'0 0.0
2018-Feb-22 06:29N 46°12' W 123°48'0 0.0
2018-Feb-22 05:59N 46°12' W 123°48'0 0.0
2018-Feb-22 05:29N 46°12' W 123°48'0 0.0
2018-Feb-22 04:59N 46°12' W 123°48'0 0.0
2018-Feb-22 04:26N 46°12' W 123°48'0 0.0
2018-Feb-22 03:59N 46°12' W 123°48'0 0.0
2018-Feb-22 03:29N 46°12' W 123°48'0 0.0
2018-Feb-22 02:59N 46°12' W 123°48'0 0.0
2018-Feb-22 02:29N 46°12' W 123°48'0 0.0
2018-Feb-22 01:59N 46°12' W 123°48'0 0.0
2018-Feb-22 01:29N 46°12' W 123°48'0 0.0
2018-Feb-22 00:59N 46°12' W 123°48'0 0.0
2018-Feb-22 00:29N 46°12' W 123°48'0 0.0
2018-Feb-21 23:59N 46°12' W 123°48'0 0.0
2018-Feb-21 23:29N 46°12' W 123°48'0 0.0
2018-Feb-21 22:59N 46°12' W 123°48'0 0.0
2018-Feb-21 22:29N 46°12' W 123°48'0 0.0
2018-Feb-21 21:59N 46°12' W 123°48'0 0.0
2018-Feb-21 21:29N 46°12' W 123°48'2 1.0
2018-Feb-21 20:00N 46°12' W 123°50'2 4.2
2018-Feb-21 19:31N 46°12' W 123°47'917.9
2018-Feb-21 19:00N 46°15' W 123°35'4 7.7
2018-Feb-21 18:26N 46°16' W 123°29'2 3.0
2018-Feb-21 17:52N 46°15' W 123°27'1 3.4
2018-Feb-21 17:29N 46°14' W 123°26'2 4.3
2018-Feb-21 17:01N 46°16' W 123°28'0 0.8
2018-Feb-21 16:30N 46°16' W 123°28'2 3.9
2018-Feb-21 16:00N 46°15' W 123°26'2 4.8
2018-Feb-21 15:30N 46°16' W 123°29'713.7
2018-Feb-21 15:01N 46°15' W 123°39'612.5
2018-Feb-21 14:30N 46°13' W 123°47'1 2.4
2018-Feb-21 13:58N 46°12' W 123°48'0 0.0
2018-Feb-21 13:28N 46°12' W 123°48'0 0.0
2018-Feb-21 12:58N 46°12' W 123°48'0 0.0
2018-Feb-21 12:28N 46°12' W 123°48'0 0.0
2018-Feb-21 11:58N 46°12' W 123°48'0 0.0
2018-Feb-21 11:28N 46°12' W 123°48'0 0.0
2018-Feb-21 10:58N 46°12' W 123°48'0 0.0
2018-Feb-21 10:28N 46°12' W 123°48'0 0.0
2018-Feb-21 09:58N 46°12' W 123°48'0 0.0
2018-Feb-21 09:28N 46°12' W 123°48'0 0.0
2018-Feb-21 08:58N 46°12' W 123°48'0 0.0
2018-Feb-21 08:07N 46°12' W 123°48'0 0.0
2018-Feb-21 07:58N 46°12' W 123°48'0 0.0
2018-Feb-21 07:28N 46°12' W 123°48'0 0.0
2018-Feb-21 06:31N 46°12' W 123°48'0 0.0
2018-Feb-21 06:28N 46°12' W 123°48'0 0.0
2018-Feb-21 05:58N 46°12' W 123°48'0 0.0
2018-Feb-21 05:25N 46°12' W 123°48'0 0.0
2018-Feb-21 04:58N 46°12' W 123°48'0 0.0
2018-Feb-21 04:28N 46°12' W 123°48'0 0.0
2018-Feb-21 03:58N 46°12' W 123°48'0 0.0
2018-Feb-21 03:28N 46°12' W 123°48'0 0.0
2018-Feb-21 02:58N 46°12' W 123°48'0 0.0
2018-Feb-21 02:25N 46°12' W 123°48'0 0.0
2018-Feb-21 01:58N 46°12' W 123°48'0 0.0
2018-Feb-21 01:25N 46°12' W 123°48'0 0.0
2018-Feb-21 00:55N 46°12' W 123°48'0 0.0
2018-Feb-21 00:28N 46°12' W 123°48'0 0.0
2018-Feb-20 23:58N 46°12' W 123°48'0 0.0
2018-Feb-20 23:01N 46°12' W 123°48'0 0.0
2018-Feb-20 22:58N 46°12' W 123°48'0 0.0
2018-Feb-20 22:22N 46°12' W 123°48'0 0.0
2018-Feb-20 21:58N 46°12' W 123°48'0 0.0
2018-Feb-20 21:28N 46°12' W 123°48'0 0.0
2018-Feb-20 20:58N 46°12' W 123°48'0 0.0
2018-Feb-20 20:28N 46°12' W 123°48'0 0.0
2018-Feb-20 19:58N 46°12' W 123°48'0 0.0
2018-Feb-20 19:28N 46°12' W 123°48'0 0.0
2018-Feb-20 18:52N 46°12' W 123°48'3 6.9
2018-Feb-20 18:30N 46°13' W 123°45'1 2.6
2018-Feb-20 18:01N 46°14' W 123°43'0 0.6
2018-Feb-20 17:30N 46°14' W 123°43'2 5.0
2018-Feb-20 17:01N 46°13' W 123°46'1 2.8
2018-Feb-20 16:30N 46°13' W 123°45'1 2.5
2018-Feb-20 16:01N 46°14' W 123°43'3 4.9
2018-Feb-20 15:26N 46°13' W 123°47'1 3.2
2018-Feb-20 15:00N 46°12' W 123°48'0 0.0
2018-Feb-20 14:28N 46°12' W 123°48'0 0.0
2018-Feb-20 13:58N 46°12' W 123°48'0 0.0
2018-Feb-20 13:28N 46°12' W 123°48'0 0.0
2018-Feb-20 12:58N 46°12' W 123°48'0 0.0
2018-Feb-20 12:28N 46°12' W 123°48'0 0.0
2018-Feb-20 11:58N 46°12' W 123°48'0 0.0
2018-Feb-20 11:28N 46°12' W 123°48'0 0.0
2018-Feb-20 10:58N 46°12' W 123°48'0 0.0
2018-Feb-20 10:28N 46°12' W 123°48'0 0.0
2018-Feb-20 09:55N 46°12' W 123°48'0 0.0
2018-Feb-20 09:28N 46°12' W 123°48'0 0.0
2018-Feb-20 08:55N 46°12' W 123°48'0 0.0
2018-Feb-20 08:28N 46°12' W 123°48'0 0.0
2018-Feb-20 07:58N 46°12' W 123°48'0 0.0
2018-Feb-20 07:28N 46°12' W 123°48'0 0.0
2018-Feb-20 06:58N 46°12' W 123°48'0 0.0
2018-Feb-20 06:28N 46°12' W 123°48'0 0.0
2018-Feb-20 05:58N 46°12' W 123°48'0 0.0
2018-Feb-20 05:28N 46°12' W 123°48'0 0.0
2018-Feb-20 04:55N 46°12' W 123°48'0 0.0
2018-Feb-20 04:28N 46°12' W 123°48'0 0.0
2018-Feb-20 03:58N 46°12' W 123°48'0 0.0
2018-Feb-20 03:28N 46°12' W 123°48'0 0.0
2018-Feb-20 02:58N 46°12' W 123°48'0 0.0
2018-Feb-20 02:28N 46°12' W 123°48'0 0.0
2018-Feb-20 01:55N 46°12' W 123°48'0 0.0
2018-Feb-20 01:16N 46°12' W 123°48'0 0.0
2018-Feb-20 00:55N 46°12' W 123°48'0 0.0
2018-Feb-20 00:28N 46°12' W 123°48'0 0.0
2018-Feb-19 23:58N 46°12' W 123°48'0 0.0
2018-Feb-19 23:28N 46°12' W 123°48'0 0.0
2018-Feb-19 22:58N 46°12' W 123°48'0 0.0
2018-Feb-19 22:28N 46°12' W 123°48'0 0.0
2018-Feb-19 21:58N 46°12' W 123°48'0 0.0
2018-Feb-19 21:25N 46°12' W 123°48'0 0.0
2018-Feb-19 20:55N 46°12' W 123°48'0 0.0
2018-Feb-19 20:28N 46°12' W 123°48'0 0.0
2018-Feb-19 19:58N 46°12' W 123°48'0 0.0
2018-Feb-19 18:58N 46°12' W 123°48'0 0.0
2018-Feb-19 18:10N 46°12' W 123°48'0 0.0
2018-Feb-19 17:58N 46°12' W 123°48'0 0.0
2018-Feb-19 17:28N 46°12' W 123°48'0 0.0
2018-Feb-19 16:58N 46°12' W 123°48'0 0.0
2018-Feb-19 16:28N 46°12' W 123°48'0 0.0
2018-Feb-19 15:58N 46°12' W 123°48'0 0.0
2018-Feb-19 15:28N 46°12' W 123°48'0 0.0
2018-Feb-19 14:58N 46°12' W 123°48'0 0.0
2018-Feb-19 14:19N 46°12' W 123°48'0 0.0
2018-Feb-19 13:58N 46°12' W 123°48'0 0.0
2018-Feb-19 13:28N 46°12' W 123°48'0 0.0
2018-Feb-19 12:58N 46°12' W 123°48'0 0.0
2018-Feb-19 12:28N 46°12' W 123°48'0 0.0
2018-Feb-19 11:58N 46°12' W 123°48'0 0.0
2018-Feb-19 10:49N 46°12' W 123°48'0 0.0
2018-Feb-19 10:28N 46°12' W 123°48'0 0.0
2018-Feb-19 09:58N 46°12' W 123°48'0 0.0
2018-Feb-19 09:19N 46°12' W 123°48'0 0.0
2018-Feb-19 08:58N 46°12' W 123°48'0 0.0
2018-Feb-19 08:28N 46°12' W 123°48'0 0.0
2018-Feb-19 07:37N 46°12' W 123°48'0 0.0
2018-Feb-19 07:28N 46°12' W 123°48'0 0.0
2018-Feb-19 06:55N 46°12' W 123°48'0 0.0
2018-Feb-19 06:28N 46°12' W 123°48'0 0.0
2018-Feb-19 05:58N 46°12' W 123°48'0 0.0
2018-Feb-19 05:16N 46°12' W 123°48'0 0.0
2018-Feb-19 04:58N 46°12' W 123°48'0 0.0
2018-Feb-19 04:28N 46°12' W 123°48'0 0.0
2018-Feb-19 03:58N 46°12' W 123°48'0 0.0
2018-Feb-19 03:28N 46°12' W 123°48'0 0.0
2018-Feb-19 02:58N 46°12' W 123°48'0 0.0
2018-Feb-19 02:28N 46°12' W 123°48'0 0.0
2018-Feb-19 01:58N 46°12' W 123°48'0 0.0
2018-Feb-19 01:28N 46°12' W 123°48'0 0.0
2018-Feb-19 00:58N 46°12' W 123°48'0 0.0
2018-Feb-19 00:28N 46°12' W 123°48'0 0.0
2018-Feb-18 23:58N 46°12' W 123°48'0 0.0
2018-Feb-18 23:28N 46°12' W 123°48'0 0.0
2018-Feb-18 22:58N 46°12' W 123°48'0 0.0
2018-Feb-18 22:28N 46°12' W 123°48'0 0.0
2018-Feb-18 21:58N 46°12' W 123°48'0 0.0
2018-Feb-18 21:28N 46°12' W 123°48'0 0.0
2018-Feb-18 20:58N 46°12' W 123°48'0 0.0
2018-Feb-18 20:28N 46°12' W 123°48'0 0.0
2018-Feb-18 19:58N 46°12' W 123°48'0 0.0
2018-Feb-18 19:28N 46°12' W 123°48'0 0.0
2018-Feb-18 18:58N 46°12' W 123°48'0 0.0
2018-Feb-18 18:25N 46°12' W 123°48'0 0.0
2018-Feb-18 17:58N 46°12' W 123°48'0 0.0
2018-Feb-18 17:28N 46°12' W 123°48'0 0.0
2018-Feb-18 16:58N 46°12' W 123°48'0 0.0
2018-Feb-18 16:28N 46°12' W 123°48'0 0.0
2018-Feb-18 15:58N 46°12' W 123°48'0 0.0
2018-Feb-18 15:28N 46°12' W 123°48'0 0.0
2018-Feb-18 14:58N 46°12' W 123°48'0 0.0
2018-Feb-18 14:28N 46°12' W 123°48'0 0.0
2018-Feb-18 13:58N 46°12' W 123°48'0 0.0
2018-Feb-18 13:28N 46°12' W 123°48'0 0.0
2018-Feb-18 12:58N 46°12' W 123°48'0 0.0
2018-Feb-18 12:28N 46°12' W 123°48'0 0.0
2018-Feb-18 11:58N 46°12' W 123°48'0 0.0
2018-Feb-18 11:28N 46°12' W 123°48'0 0.0
2018-Feb-18 10:58N 46°12' W 123°48'0 0.0
2018-Feb-18 10:16N 46°12' W 123°48'0 0.0
2018-Feb-18 09:49N 46°12' W 123°48'0 0.0
2018-Feb-18 09:28N 46°12' W 123°48'0 0.0
2018-Feb-18 08:58N 46°12' W 123°48'0 0.0
2018-Feb-18 08:28N 46°12' W 123°48'0 0.0
2018-Feb-18 07:58N 46°12' W 123°48'0 0.0
2018-Feb-18 07:19N 46°12' W 123°48'0 0.0
2018-Feb-18 06:46N 46°12' W 123°48'0 0.0
2018-Feb-18 06:31N 46°12' W 123°48'0 0.0
2018-Feb-18 05:58N 46°12' W 123°48'0 0.0
2018-Feb-18 05:25N 46°12' W 123°48'0 0.0
2018-Feb-18 05:01N 46°12' W 123°48'0 0.0
2018-Feb-18 04:22N 46°12' W 123°48'0 0.0
2018-Feb-18 03:58N 46°12' W 123°48'0 0.0
2018-Feb-18 03:28N 46°12' W 123°48'0 0.0
2018-Feb-18 02:58N 46°12' W 123°48'0 0.0
2018-Feb-18 02:25N 46°12' W 123°48'0 0.0
2018-Feb-18 02:01N 46°12' W 123°48'0 0.0
2018-Feb-18 01:28N 46°12' W 123°48'0 0.0
2018-Feb-18 01:01N 46°12' W 123°48'0 0.0
2018-Feb-18 00:10N 46°12' W 123°48'0 0.0
2018-Feb-17 23:46N 46°12' W 123°48'0 0.0
2018-Feb-17 23:01N 46°12' W 123°48'0 0.0
2018-Feb-17 23:01N 46°12' W 123°48'0 0.0
2018-Feb-17 22:31N 46°12' W 123°48'0 0.0
2018-Feb-17 21:58N 46°12' W 123°48'0 0.0
2018-Feb-17 21:28N 46°12' W 123°48'0 0.0
2018-Feb-17 21:01N 46°12' W 123°48'0 0.0
2018-Feb-17 20:28N 46°12' W 123°48'0 0.0
2018-Feb-17 19:58N 46°12' W 123°48'0 0.0
2018-Feb-17 19:28N 46°12' W 123°48'0 0.0
2018-Feb-17 18:37N 46°12' W 123°48'0 0.0
2018-Feb-17 18:31N 46°12' W 123°48'0 0.0
2018-Feb-17 18:01N 46°12' W 123°48'0 0.0
2018-Feb-17 17:31N 46°12' W 123°48'0 0.0
2018-Feb-17 16:58N 46°12' W 123°48'0 0.0
2018-Feb-17 16:31N 46°12' W 123°48'0 0.0
2018-Feb-17 16:01N 46°12' W 123°48'0 0.0
2018-Feb-17 15:31N 46°12' W 123°48'0 0.0
2018-Feb-17 14:58N 46°12' W 123°48'0 0.0
2018-Feb-17 14:25N 46°12' W 123°48'0 0.0
2018-Feb-17 14:01N 46°12' W 123°48'0 0.0
2018-Feb-17 13:31N 46°12' W 123°48'0 0.0
2018-Feb-17 10:16N 46°12' W 123°48'0 0.0
2018-Feb-17 10:01N 46°12' W 123°48'0 0.0
2018-Feb-17 09:31N 46°12' W 123°48'0 0.0
2018-Feb-17 08:58N 46°12' W 123°48'0 0.0
2018-Feb-17 08:31N 46°12' W 123°48'0 0.0
2018-Feb-17 07:58N 46°12' W 123°48'0 0.0
2018-Feb-17 07:31N 46°12' W 123°48'0 0.0
2018-Feb-17 07:01N 46°12' W 123°48'0 0.0
2018-Feb-17 06:31N 46°12' W 123°48'0 0.0
2018-Feb-17 06:00N 46°12' W 123°48'0 0.0
2018-Feb-17 05:28N 46°12' W 123°48'0 0.0
2018-Feb-17 05:01N 46°12' W 123°48'0 0.0
2018-Feb-17 04:31N 46°12' W 123°48'0 0.0
2018-Feb-17 03:34N 46°12' W 123°48'0 0.0
2018-Feb-17 03:16N 46°12' W 123°48'0 0.0
2018-Feb-17 03:01N 46°12' W 123°48'0 0.0
2018-Feb-17 02:31N 46°12' W 123°48'0 0.0
2018-Feb-17 02:01N 46°12' W 123°48'0 0.0
2018-Feb-17 01:31N 46°12' W 123°48'0 0.0
2018-Feb-17 01:00N 46°12' W 123°48'0 0.0
2018-Feb-17 00:31N 46°12' W 123°48'0 0.0
2018-Feb-16 23:58N 46°12' W 123°48'0 0.0
2018-Feb-16 23:28N 46°12' W 123°48'0 0.0
2018-Feb-16 22:58N 46°12' W 123°48'0 0.0
2018-Feb-16 22:30N 46°12' W 123°48'0 0.0
2018-Feb-16 22:00N 46°12' W 123°48'0 0.0
2018-Feb-16 21:31N 46°12' W 123°48'0 0.0
2018-Feb-16 20:43N 46°12' W 123°48'0 0.0
2018-Feb-16 20:25N 46°12' W 123°48'0 0.0
2018-Feb-16 20:01N 46°12' W 123°48'0 0.0
2018-Feb-16 19:24N 46°12' W 123°48'0 0.0
2018-Feb-16 19:00N 46°12' W 123°48'0 0.0
2018-Feb-16 18:28N 46°12' W 123°48'0 0.0
2018-Feb-16 17:58N 46°12' W 123°48'0 0.0
2018-Feb-16 17:31N 46°12' W 123°48'0 0.0
2018-Feb-16 17:00N 46°12' W 123°48'0 0.0
2018-Feb-16 16:07N 46°12' W 123°48'0 0.0
2018-Feb-16 15:52N 46°12' W 123°48'0 0.0
2018-Feb-16 15:31N 46°12' W 123°48'0 0.0
2018-Feb-16 15:01N 46°12' W 123°48'0 0.0
2018-Feb-16 14:28N 46°12' W 123°48'0 0.0
2018-Feb-16 14:01N 46°12' W 123°48'0 0.0
2018-Feb-16 13:30N 46°12' W 123°48'0 0.0
2018-Feb-16 13:00N 46°12' W 123°48'0 0.0
2018-Feb-16 12:30N 46°12' W 123°48'0 0.0
2018-Feb-16 11:46N 46°12' W 123°48'0 0.0
2018-Feb-16 11:31N 46°12' W 123°48'0 0.0
2018-Feb-16 11:01N 46°12' W 123°48'0 0.0
2018-Feb-16 10:31N 46°12' W 123°48'0 0.0
2018-Feb-16 09:57N 46°12' W 123°48'0 0.0
2018-Feb-16 08:58N 46°12' W 123°48'0 0.0
2018-Feb-16 08:30N 46°12' W 123°48'0 0.0
2018-Feb-16 08:01N 46°12' W 123°48'0 0.0
2018-Feb-16 07:30N 46°12' W 123°48'0 0.0
2018-Feb-16 07:00N 46°12' W 123°48'0 0.0
2018-Feb-16 06:31N 46°12' W 123°48'0 0.0
2018-Feb-16 06:01N 46°12' W 123°48'0 0.0
2018-Feb-16 05:31N 46°12' W 123°48'0 0.0
2018-Feb-16 05:01N 46°12' W 123°48'0 0.0
2018-Feb-16 04:30N 46°12' W 123°48'0 0.0
2018-Feb-16 04:01N 46°12' W 123°48'0 0.0
2018-Feb-16 03:31N 46°12' W 123°48'0 0.0
2018-Feb-16 03:01N 46°12' W 123°48'0 0.0
2018-Feb-16 02:28N 46°12' W 123°48'0 0.0
2018-Feb-16 02:01N 46°12' W 123°48'0 0.0
2018-Feb-16 01:31N 46°12' W 123°48'0 0.0
2018-Feb-16 01:00N 46°12' W 123°48'0 0.0
2018-Feb-16 00:25N 46°12' W 123°48'0 0.0
2018-Feb-16 00:01N 46°12' W 123°48'0 0.0
2018-Feb-15 23:31N 46°12' W 123°48'0 0.0
2018-Feb-15 23:00N 46°12' W 123°48'0 0.0
2018-Feb-15 22:30N 46°12' W 123°48'0 0.0
2018-Feb-15 22:01N 46°12' W 123°48'0 0.0
2018-Feb-15 21:30N 46°12' W 123°48'0 0.0
2018-Feb-15 21:01N 46°12' W 123°48'1 1.8
2018-Feb-15 20:31N 46°12' W 123°47'612.4
2018-Feb-15 20:01N 46°15' W 123°39'612.6
2018-Feb-15 19:30N 46°16' W 123°30'5 9.4
2018-Feb-15 19:01N 46°13' W 123°25'0 0.6
2018-Feb-15 18:20N 46°13' W 123°26'2 7.7
2018-Feb-15 18:00N 46°11' W 123°25'2 4.8
2018-Feb-15 17:31N 46°13' W 123°25'0 1.0
2018-Feb-15 17:00N 46°13' W 123°26'2 4.6
2018-Feb-15 16:31N 46°10' W 123°25'3 6.7
2018-Feb-15 16:01N 46°14' W 123°25'4 8.4
2018-Feb-15 15:31N 46°16' W 123°30'713.0
2018-Feb-15 15:00N 46°15' W 123°40'612.6
2018-Feb-15 14:30N 46°12' W 123°48'0 0.9
2018-Feb-15 14:00N 46°12' W 123°48'0 0.0
2018-Feb-15 13:30N 46°12' W 123°48'0 0.0
2018-Feb-15 13:00N 46°12' W 123°48'0 0.0
2018-Feb-15 12:21N 46°12' W 123°48'0 0.0
2018-Feb-15 12:00N 46°12' W 123°48'0 0.0
2018-Feb-15 11:12N 46°12' W 123°48'0 0.0
2018-Feb-15 10:54N 46°12' W 123°48'0 0.0
2018-Feb-15 10:30N 46°12' W 123°48'0 0.0
2018-Feb-15 10:00N 46°12' W 123°48'0 0.0
2018-Feb-15 09:30N 46°12' W 123°48'0 0.0
2018-Feb-15 09:00N 46°12' W 123°48'0 0.0
2018-Feb-15 08:30N 46°12' W 123°48'0 0.0
2018-Feb-15 07:57N 46°12' W 123°48'0 0.0
2018-Feb-15 07:30N 46°12' W 123°48'0 0.0
2018-Feb-15 07:00N 46°12' W 123°48'0 0.0
2018-Feb-15 06:30N 46°12' W 123°48'0 0.0
2018-Feb-15 06:00N 46°12' W 123°48'0 0.0
2018-Feb-15 05:30N 46°12' W 123°48'0 0.0
2018-Feb-15 05:00N 46°12' W 123°48'0 0.0
2018-Feb-15 04:30N 46°12' W 123°48'0 0.0
2018-Feb-15 03:54N 46°12' W 123°48'0 0.0
2018-Feb-15 03:30N 46°12' W 123°48'0 0.0
2018-Feb-15 03:00N 46°12' W 123°48'0 0.0
2018-Feb-15 02:30N 46°12' W 123°48'0 0.0
2018-Feb-15 02:00N 46°12' W 123°48'0 0.0
2018-Feb-15 01:30N 46°12' W 123°48'0 0.0
2018-Feb-15 00:57N 46°12' W 123°48'0 0.0
2018-Feb-15 00:30N 46°12' W 123°48'0 0.0
2018-Feb-15 00:00N 46°12' W 123°48'0 0.0
2018-Feb-14 23:30N 46°12' W 123°48'0 0.0
2018-Feb-14 23:00N 46°12' W 123°48'0 0.0
2018-Feb-14 22:30N 46°12' W 123°48'0 0.0
2018-Feb-14 22:00N 46°12' W 123°48'0 0.0
2018-Feb-14 21:30N 46°12' W 123°48'0 0.0
2018-Feb-14 21:00N 46°12' W 123°48'0 0.0
2018-Feb-14 20:27N 46°12' W 123°48'0 0.0
2018-Feb-14 20:00N 46°12' W 123°48'0 0.0
2018-Feb-14 19:30N 46°12' W 123°48'2 2.5
2018-Feb-14 18:54N 46°12' W 123°50'0 1.2
2018-Feb-14 18:30N 46°12' W 123°51'0 0.7
2018-Feb-14 18:01N 46°12' W 123°51'3 5.1
2018-Feb-14 17:31N 46°12' W 123°55'1 1.5
2018-Feb-14 17:00N 46°11' W 123°54'2 3.1
2018-Feb-14 16:31N 46°12' W 123°52'1 1.9
2018-Feb-14 15:48N 46°11' W 123°54'1 2.0
2018-Feb-14 15:30N 46°11' W 123°53'3 6.1
2018-Feb-14 15:00N 46°12' W 123°49'0 0.8
2018-Feb-14 14:29N 46°12' W 123°48'0 0.0
2018-Feb-14 13:56N 46°12' W 123°48'0 0.0
2018-Feb-14 13:29N 46°12' W 123°48'22592176.0
2018-Feb-14 12:27N 34°42' W 076°41'22592125.4
2018-Feb-14 11:23N 46°12' W 123°48'0 0.0
2018-Feb-14 10:59N 46°12' W 123°48'0 0.0
2018-Feb-14 10:29N 46°12' W 123°48'0 0.0
2018-Feb-14 09:59N 46°12' W 123°48'0 0.0
2018-Feb-14 09:29N 46°12' W 123°48'0 0.0
2018-Feb-14 08:59N 46°12' W 123°48'0 0.0
2018-Feb-14 08:29N 46°12' W 123°48'0 0.0
2018-Feb-14 07:59N 46°12' W 123°48'0 0.0
2018-Feb-14 07:29N 46°12' W 123°48'0 0.0
2018-Feb-14 06:59N 46°12' W 123°48'0 0.0
2018-Feb-14 06:29N 46°12' W 123°48'0 0.0
2018-Feb-14 05:59N 46°12' W 123°48'0 0.0
2018-Feb-14 05:29N 46°12' W 123°48'0 0.0
2018-Feb-14 04:59N 46°12' W 123°48'0 0.0
2018-Feb-14 04:29N 46°12' W 123°48'0 0.0
2018-Feb-14 03:56N 46°12' W 123°48'0 0.0
2018-Feb-14 03:29N 46°12' W 123°48'0 0.0
2018-Feb-14 02:56N 46°12' W 123°48'0 0.0
2018-Feb-14 02:29N 46°12' W 123°48'0 0.0
2018-Feb-14 01:59N 46°12' W 123°48'0 0.0
2018-Feb-14 01:26N 46°12' W 123°48'2 3.9
2018-Feb-14 01:00N 46°12' W 123°51'4 7.5
2018-Feb-14 00:31N 46°12' W 123°56'612.0
2018-Feb-14 00:01N 46°16' W 124°03'1 1.7
2018-Feb-13 23:30N 46°16' W 124°02'816.4
2018-Feb-13 23:01N 46°11' W 123°51'3 6.1
2018-Feb-13 22:31N 46°12' W 123°56'610.0
2018-Feb-13 21:54N 46°16' W 124°03'5 9.0
2018-Feb-13 21:19N 46°13' W 123°57'4 5.5
2018-Feb-13 20:36N 46°11' W 123°51'0 0.0
2018-Feb-13 20:31N 46°11' W 123°51'  
Track history (hours):
 
Tides and Currents Weather Stations Pressure Air Temp Water Temp Dewpoint Dewpoint Depression Visibility Wind Speed Wind Dir Waves Ship Positions

Elton

Last reported at 2018-Feb-23 20:00 UTC. Time now 2018-Feb-23 20:23 UTC.
Position N 46°12' W 123°48'.

Length 20 m.

MMSI: 369970121.

Date/timePositionNaut miles runAvg speedWind from/ knotsBaromVisibWave heightAir tempDewpointWater temp
2018-Feb-23 20:00N 46°12' W 123°48'0 0.0
2018-Feb-23 19:30N 46°12' W 123°48'0 0.0
2018-Feb-23 19:00N 46°12' W 123°48'0 0.0
2018-Feb-23 18:30N 46°12' W 123°48'0 0.0
2018-Feb-23 18:00N 46°12' W 123°48'0 0.0
2018-Feb-23 17:30N 46°12' W 123°48'0 0.0
2018-Feb-23 17:00N 46°12' W 123°48'0 0.0
2018-Feb-23 16:30N 46°12' W 123°48'0 0.0
2018-Feb-23 16:00N 46°12' W 123°48'0 0.0
2018-Feb-23 15:30N 46°12' W 123°48'0 0.0
2018-Feb-23 15:00N 46°12' W 123°48'0 0.0
2018-Feb-23 14:30N 46°12' W 123°48'0 0.0
2018-Feb-23 14:00N 46°12' W 123°48'0 0.0
2018-Feb-23 13:30N 46°12' W 123°48'0 0.0
2018-Feb-23 13:00N 46°12' W 123°48'0 0.0
2018-Feb-23 12:30N 46°12' W 123°48'0 0.0
2018-Feb-23 12:00N 46°12' W 123°48'0 0.0
2018-Feb-23 11:30N 46°12' W 123°48'0 0.0
2018-Feb-23 10:47N 46°12' W 123°48'0 0.0
2018-Feb-23 10:23N 46°12' W 123°48'0 0.0
2018-Feb-23 10:00N 46°12' W 123°48'0 0.0
2018-Feb-23 09:15N 46°12' W 123°48'0 0.0
2018-Feb-23 09:00N 46°12' W 123°48'0 0.0
2018-Feb-23 08:30N 46°12' W 123°48'0 0.0
2018-Feb-23 08:00N 46°12' W 123°48'0 0.0
2018-Feb-23 07:16N 46°12' W 123°48'0 0.0
2018-Feb-23 07:00N 46°12' W 123°48'0 0.0
2018-Feb-23 06:27N 46°12' W 123°48'0 0.0
2018-Feb-23 06:00N 46°12' W 123°48'0 0.0
2018-Feb-23 05:30N 46°12' W 123°48'0 0.0
2018-Feb-23 05:00N 46°12' W 123°48'0 0.0
2018-Feb-23 04:30N 46°12' W 123°48'0 0.0
2018-Feb-23 04:00N 46°12' W 123°48'0 0.0
2018-Feb-23 03:27N 46°12' W 123°48'0 0.0
2018-Feb-23 03:00N 46°12' W 123°48'0 0.0
2018-Feb-23 02:29N 46°12' W 123°48'0 0.0
2018-Feb-23 02:00N 46°12' W 123°48'0 0.0
2018-Feb-23 01:16N 46°12' W 123°48'0 0.0
2018-Feb-23 01:00N 46°12' W 123°48'0 0.0
2018-Feb-23 00:30N 46°12' W 123°48'0 0.0
2018-Feb-22 23:54N 46°12' W 123°48'0 0.0
2018-Feb-22 23:30N 46°12' W 123°48'0 0.0
2018-Feb-22 23:01N 46°12' W 123°48'0 0.0
2018-Feb-22 22:30N 46°12' W 123°48'0 0.0
2018-Feb-22 22:00N 46°12' W 123°48'0 0.0
2018-Feb-22 21:25N 46°12' W 123°48'0 0.1
2018-Feb-22 21:00N 46°12' W 123°48'713.7
2018-Feb-22 20:30N 46°15' W 123°40'814.8
2018-Feb-22 19:57N 46°16' W 123°28'512.1
2018-Feb-22 19:30N 46°11' W 123°25'2 2.9
2018-Feb-22 18:39N 46°09' W 123°23'1 8.8
2018-Feb-22 18:31N 46°09' W 123°21'2 3.8
2018-Feb-22 18:01N 46°09' W 123°24'1 2.7
2018-Feb-22 17:30N 46°10' W 123°25'1 1.8
2018-Feb-22 17:00N 46°10' W 123°24'2 4.3
2018-Feb-22 16:31N 46°09' W 123°22'3 6.4
2018-Feb-22 16:00N 46°11' W 123°25'611.4
2018-Feb-22 15:30N 46°16' W 123°28'612.5
2018-Feb-22 15:00N 46°15' W 123°37'612.1
2018-Feb-22 14:30N 46°13' W 123°45'3 5.0
2018-Feb-22 14:01N 46°12' W 123°48'22591495.7
2018-Feb-22 12:30N 34°42' W 076°41'22594342.7
2018-Feb-22 11:59N 46°12' W 123°48'0 0.0
2018-Feb-22 11:29N 46°12' W 123°48'0 0.0
2018-Feb-22 10:59N 46°12' W 123°48'0 0.0
2018-Feb-22 10:29N 46°12' W 123°48'0 0.0
2018-Feb-22 09:59N 46°12' W 123°48'0 0.0
2018-Feb-22 09:29N 46°12' W 123°48'0 0.0
2018-Feb-22 08:59N 46°12' W 123°48'0 0.0
2018-Feb-22 08:26N 46°12' W 123°48'0 0.0
2018-Feb-22 07:59N 46°12' W 123°48'0 0.0
2018-Feb-22 07:26N 46°12' W 123°48'0 0.0
2018-Feb-22 06:59N 46°12' W 123°48'0 0.0
2018-Feb-22 06:29N 46°12' W 123°48'0 0.0
2018-Feb-22 05:59N 46°12' W 123°48'0 0.0
2018-Feb-22 05:29N 46°12' W 123°48'0 0.0
2018-Feb-22 04:59N 46°12' W 123°48'0 0.0
2018-Feb-22 04:26N 46°12' W 123°48'0 0.0
2018-Feb-22 03:59N 46°12' W 123°48'0 0.0
2018-Feb-22 03:29N 46°12' W 123°48'0 0.0
2018-Feb-22 02:59N 46°12' W 123°48'0 0.0
2018-Feb-22 02:29N 46°12' W 123°48'0 0.0
2018-Feb-22 01:59N 46°12' W 123°48'0 0.0
2018-Feb-22 01:29N 46°12' W 123°48'0 0.0
2018-Feb-22 00:59N 46°12' W 123°48'0 0.0
2018-Feb-22 00:29N 46°12' W 123°48'0 0.0
2018-Feb-21 23:59N 46°12' W 123°48'0 0.0
2018-Feb-21 23:29N 46°12' W 123°48'0 0.0
2018-Feb-21 22:59N 46°12' W 123°48'0 0.0
2018-Feb-21 22:29N 46°12' W 123°48'0 0.0
2018-Feb-21 21:59N 46°12' W 123°48'0 0.0
2018-Feb-21 21:29N 46°12' W 123°48'2 1.0
2018-Feb-21 20:00N 46°12' W 123°50'2 4.2
2018-Feb-21 19:31N 46°12' W 123°47'917.9
2018-Feb-21 19:00N 46°15' W 123°35'4 7.7
2018-Feb-21 18:26N 46°16' W 123°29'2 3.0
2018-Feb-21 17:52N 46°15' W 123°27'1 3.4
2018-Feb-21 17:29N 46°14' W 123°26'2 4.3
2018-Feb-21 17:01N 46°16' W 123°28'0 0.8
2018-Feb-21 16:30N 46°16' W 123°28'2 3.9
2018-Feb-21 16:00N 46°15' W 123°26'2 4.8
2018-Feb-21 15:30N 46°16' W 123°29'713.7
2018-Feb-21 15:01N 46°15' W 123°39'612.5
2018-Feb-21 14:30N 46°13' W 123°47'1 2.4
2018-Feb-21 13:58N 46°12' W 123°48'0 0.0
2018-Feb-21 13:28N 46°12' W 123°48'0 0.0
2018-Feb-21 12:58N 46°12' W 123°48'0 0.0
2018-Feb-21 12:28N 46°12' W 123°48'0 0.0
2018-Feb-21 11:58N 46°12' W 123°48'0 0.0
2018-Feb-21 11:28N 46°12' W 123°48'0 0.0
2018-Feb-21 10:58N 46°12' W 123°48'0 0.0
2018-Feb-21 10:28N 46°12' W 123°48'0 0.0
2018-Feb-21 09:58N 46°12' W 123°48'0 0.0
2018-Feb-21 09:28N 46°12' W 123°48'0 0.0
2018-Feb-21 08:58N 46°12' W 123°48'0 0.0
2018-Feb-21 08:07N 46°12' W 123°48'0 0.0
2018-Feb-21 07:58N 46°12' W 123°48'0 0.0
2018-Feb-21 07:28N 46°12' W 123°48'0 0.0
2018-Feb-21 06:31N 46°12' W 123°48'0 0.0
2018-Feb-21 06:28N 46°12' W 123°48'0 0.0
2018-Feb-21 05:58N 46°12' W 123°48'0 0.0
2018-Feb-21 05:25N 46°12' W 123°48'0 0.0
2018-Feb-21 04:58N 46°12' W 123°48'0 0.0
2018-Feb-21 04:28N 46°12' W 123°48'0 0.0
2018-Feb-21 03:58N 46°12' W 123°48'0 0.0
2018-Feb-21 03:28N 46°12' W 123°48'0 0.0
2018-Feb-21 02:58N 46°12' W 123°48'0 0.0
2018-Feb-21 02:25N 46°12' W 123°48'0 0.0
2018-Feb-21 01:58N 46°12' W 123°48'0 0.0
2018-Feb-21 01:25N 46°12' W 123°48'0 0.0
2018-Feb-21 00:55N 46°12' W 123°48'0 0.0
2018-Feb-21 00:28N 46°12' W 123°48'0 0.0
2018-Feb-20 23:58N 46°12' W 123°48'0 0.0
2018-Feb-20 23:01N 46°12' W 123°48'0 0.0
2018-Feb-20 22:58N 46°12' W 123°48'0 0.0
2018-Feb-20 22:22N 46°12' W 123°48'0 0.0
2018-Feb-20 21:58N 46°12' W 123°48'0 0.0
2018-Feb-20 21:28N 46°12' W 123°48'0 0.0
2018-Feb-20 20:58N 46°12' W 123°48'0 0.0
2018-Feb-20 20:28N 46°12' W 123°48'0 0.0
2018-Feb-20 19:58N 46°12' W 123°48'0 0.0
2018-Feb-20 19:28N 46°12' W 123°48'0 0.0
2018-Feb-20 18:52N 46°12' W 123°48'3 6.9
2018-Feb-20 18:30N 46°13' W 123°45'1 2.6
2018-Feb-20 18:01N 46°14' W 123°43'0 0.6
2018-Feb-20 17:30N 46°14' W 123°43'2 5.0
2018-Feb-20 17:01N 46°13' W 123°46'1 2.8
2018-Feb-20 16:30N 46°13' W 123°45'1 2.5
2018-Feb-20 16:01N 46°14' W 123°43'3 4.9
2018-Feb-20 15:26N 46°13' W 123°47'1 3.2
2018-Feb-20 15:00N 46°12' W 123°48'0 0.0
2018-Feb-20 14:28N 46°12' W 123°48'0 0.0
2018-Feb-20 13:58N 46°12' W 123°48'0 0.0
2018-Feb-20 13:28N 46°12' W 123°48'0 0.0
2018-Feb-20 12:58N 46°12' W 123°48'0 0.0
2018-Feb-20 12:28N 46°12' W 123°48'0 0.0
2018-Feb-20 11:58N 46°12' W 123°48'0 0.0
2018-Feb-20 11:28N 46°12' W 123°48'0 0.0
2018-Feb-20 10:58N 46°12' W 123°48'0 0.0
2018-Feb-20 10:28N 46°12' W 123°48'0 0.0
2018-Feb-20 09:55N 46°12' W 123°48'0 0.0
2018-Feb-20 09:28N 46°12' W 123°48'0 0.0
2018-Feb-20 08:55N 46°12' W 123°48'0 0.0
2018-Feb-20 08:28N 46°12' W 123°48'0 0.0
2018-Feb-20 07:58N 46°12' W 123°48'0 0.0
2018-Feb-20 07:28N 46°12' W 123°48'0 0.0
2018-Feb-20 06:58N 46°12' W 123°48'0 0.0
2018-Feb-20 06:28N 46°12' W 123°48'0 0.0
2018-Feb-20 05:58N 46°12' W 123°48'0 0.0
2018-Feb-20 05:28N 46°12' W 123°48'0 0.0
2018-Feb-20 04:55N 46°12' W 123°48'0 0.0
2018-Feb-20 04:28N 46°12' W 123°48'0 0.0
2018-Feb-20 03:58N 46°12' W 123°48'0 0.0
2018-Feb-20 03:28N 46°12' W 123°48'0 0.0
2018-Feb-20 02:58N 46°12' W 123°48'0 0.0
2018-Feb-20 02:28N 46°12' W 123°48'0 0.0
2018-Feb-20 01:55N 46°12' W 123°48'0 0.0
2018-Feb-20 01:16N 46°12' W 123°48'0 0.0
2018-Feb-20 00:55N 46°12' W 123°48'0 0.0
2018-Feb-20 00:28N 46°12' W 123°48'0 0.0
2018-Feb-19 23:58N 46°12' W 123°48'0 0.0
2018-Feb-19 23:28N 46°12' W 123°48'0 0.0
2018-Feb-19 22:58N 46°12' W 123°48'0 0.0
2018-Feb-19 22:28N 46°12' W 123°48'0 0.0
2018-Feb-19 21:58N 46°12' W 123°48'0 0.0
2018-Feb-19 21:25N 46°12' W 123°48'0 0.0
2018-Feb-19 20:55N 46°12' W 123°48'0 0.0
2018-Feb-19 20:28N 46°12' W 123°48'0 0.0
2018-Feb-19 19:58N 46°12' W 123°48'0 0.0
2018-Feb-19 18:58N 46°12' W 123°48'0 0.0
2018-Feb-19 18:10N 46°12' W 123°48'0 0.0
2018-Feb-19 17:58N 46°12' W 123°48'0 0.0
2018-Feb-19 17:28N 46°12' W 123°48'0 0.0
2018-Feb-19 16:58N 46°12' W 123°48'0 0.0
2018-Feb-19 16:28N 46°12' W 123°48'0 0.0
2018-Feb-19 15:58N 46°12' W 123°48'0 0.0
2018-Feb-19 15:28N 46°12' W 123°48'0 0.0
2018-Feb-19 14:58N 46°12' W 123°48'0 0.0
2018-Feb-19 14:19N 46°12' W 123°48'0 0.0
2018-Feb-19 13:58N 46°12' W 123°48'0 0.0
2018-Feb-19 13:28N 46°12' W 123°48'0 0.0
2018-Feb-19 12:58N 46°12' W 123°48'0 0.0
2018-Feb-19 12:28N 46°12' W 123°48'0 0.0
2018-Feb-19 11:58N 46°12' W 123°48'0 0.0
2018-Feb-19 10:49N 46°12' W 123°48'0 0.0
2018-Feb-19 10:28N 46°12' W 123°48'0 0.0
2018-Feb-19 09:58N 46°12' W 123°48'0 0.0
2018-Feb-19 09:19N 46°12' W 123°48'0 0.0
2018-Feb-19 08:58N 46°12' W 123°48'0 0.0
2018-Feb-19 08:28N 46°12' W 123°48'0 0.0
2018-Feb-19 07:37N 46°12' W 123°48'0 0.0
2018-Feb-19 07:28N 46°12' W 123°48'0 0.0
2018-Feb-19 06:55N 46°12' W 123°48'0 0.0
2018-Feb-19 06:28N 46°12' W 123°48'0 0.0
2018-Feb-19 05:58N 46°12' W 123°48'0 0.0
2018-Feb-19 05:16N 46°12' W 123°48'0 0.0
2018-Feb-19 04:58N 46°12' W 123°48'0 0.0
2018-Feb-19 04:28N 46°12' W 123°48'0 0.0
2018-Feb-19 03:58N 46°12' W 123°48'0 0.0
2018-Feb-19 03:28N 46°12' W 123°48'0 0.0
2018-Feb-19 02:58N 46°12' W 123°48'0 0.0
2018-Feb-19 02:28N 46°12' W 123°48'0 0.0
2018-Feb-19 01:58N 46°12' W 123°48'0 0.0
2018-Feb-19 01:28N 46°12' W 123°48'0 0.0
2018-Feb-19 00:58N 46°12' W 123°48'0 0.0
2018-Feb-19 00:28N 46°12' W 123°48'0 0.0
2018-Feb-18 23:58N 46°12' W 123°48'0 0.0
2018-Feb-18 23:28N 46°12' W 123°48'0 0.0
2018-Feb-18 22:58N 46°12' W 123°48'0 0.0
2018-Feb-18 22:28N 46°12' W 123°48'0 0.0
2018-Feb-18 21:58N 46°12' W 123°48'0 0.0
2018-Feb-18 21:28N 46°12' W 123°48'0 0.0
2018-Feb-18 20:58N 46°12' W 123°48'0 0.0
2018-Feb-18 20:28N 46°12' W 123°48'0 0.0
2018-Feb-18 19:58N 46°12' W 123°48'0 0.0
2018-Feb-18 19:28N 46°12' W 123°48'0 0.0
2018-Feb-18 18:58N 46°12' W 123°48'0 0.0
2018-Feb-18 18:25N 46°12' W 123°48'0 0.0
2018-Feb-18 17:58N 46°12' W 123°48'0 0.0
2018-Feb-18 17:28N 46°12' W 123°48'0 0.0
2018-Feb-18 16:58N 46°12' W 123°48'0 0.0
2018-Feb-18 16:28N 46°12' W 123°48'0 0.0
2018-Feb-18 15:58N 46°12' W 123°48'0 0.0
2018-Feb-18 15:28N 46°12' W 123°48'0 0.0
2018-Feb-18 14:58N 46°12' W 123°48'0 0.0
2018-Feb-18 14:28N 46°12' W 123°48'0 0.0
2018-Feb-18 13:58N 46°12' W 123°48'0 0.0
2018-Feb-18 13:28N 46°12' W 123°48'0 0.0
2018-Feb-18 12:58N 46°12' W 123°48'0 0.0
2018-Feb-18 12:28N 46°12' W 123°48'0 0.0
2018-Feb-18 11:58N 46°12' W 123°48'0 0.0
2018-Feb-18 11:28N 46°12' W 123°48'0 0.0
2018-Feb-18 10:58N 46°12' W 123°48'0 0.0
2018-Feb-18 10:16N 46°12' W 123°48'0 0.0
2018-Feb-18 09:49N 46°12' W 123°48'0 0.0
2018-Feb-18 09:28N 46°12' W 123°48'0 0.0
2018-Feb-18 08:58N 46°12' W 123°48'0 0.0
2018-Feb-18 08:28N 46°12' W 123°48'0 0.0
2018-Feb-18 07:58N 46°12' W 123°48'0 0.0
2018-Feb-18 07:19N 46°12' W 123°48'0 0.0
2018-Feb-18 06:46N 46°12' W 123°48'0 0.0
2018-Feb-18 06:31N 46°12' W 123°48'0 0.0
2018-Feb-18 05:58N 46°12' W 123°48'0 0.0
2018-Feb-18 05:25N 46°12' W 123°48'0 0.0
2018-Feb-18 05:01N 46°12' W 123°48'0 0.0
2018-Feb-18 04:22N 46°12' W 123°48'0 0.0
2018-Feb-18 03:58N 46°12' W 123°48'0 0.0
2018-Feb-18 03:28N 46°12' W 123°48'0 0.0
2018-Feb-18 02:58N 46°12' W 123°48'0 0.0
2018-Feb-18 02:25N 46°12' W 123°48'0 0.0
2018-Feb-18 02:01N 46°12' W 123°48'0 0.0
2018-Feb-18 01:28N 46°12' W 123°48'0 0.0
2018-Feb-18 01:01N 46°12' W 123°48'0 0.0
2018-Feb-18 00:10N 46°12' W 123°48'0 0.0
2018-Feb-17 23:46N 46°12' W 123°48'0 0.0
2018-Feb-17 23:01N 46°12' W 123°48'0 0.0
2018-Feb-17 23:01N 46°12' W 123°48'0 0.0
2018-Feb-17 22:31N 46°12' W 123°48'0 0.0
2018-Feb-17 21:58N 46°12' W 123°48'0 0.0
2018-Feb-17 21:28N 46°12' W 123°48'0 0.0
2018-Feb-17 21:01N 46°12' W 123°48'0 0.0
2018-Feb-17 20:28N 46°12' W 123°48'0 0.0
2018-Feb-17 19:58N 46°12' W 123°48'0 0.0
2018-Feb-17 19:28N 46°12' W 123°48'0 0.0
2018-Feb-17 18:37N 46°12' W 123°48'0 0.0
2018-Feb-17 18:31N 46°12' W 123°48'0 0.0
2018-Feb-17 18:01N 46°12' W 123°48'0 0.0
2018-Feb-17 17:31N 46°12' W 123°48'0 0.0
2018-Feb-17 16:58N 46°12' W 123°48'0 0.0
2018-Feb-17 16:31N 46°12' W 123°48'0 0.0
2018-Feb-17 16:01N 46°12' W 123°48'0 0.0
2018-Feb-17 15:31N 46°12' W 123°48'0 0.0
2018-Feb-17 14:58N 46°12' W 123°48'0 0.0
2018-Feb-17 14:25N 46°12' W 123°48'0 0.0
2018-Feb-17 14:01N 46°12' W 123°48'0 0.0
2018-Feb-17 13:31N 46°12' W 123°48'0 0.0
2018-Feb-17 10:16N 46°12' W 123°48'0 0.0
2018-Feb-17 10:01N 46°12' W 123°48'0 0.0
2018-Feb-17 09:31N 46°12' W 123°48'0 0.0
2018-Feb-17 08:58N 46°12' W 123°48'0 0.0
2018-Feb-17 08:31N 46°12' W 123°48'0 0.0
2018-Feb-17 07:58N 46°12' W 123°48'0 0.0
2018-Feb-17 07:31N 46°12' W 123°48'0 0.0
2018-Feb-17 07:01N 46°12' W 123°48'0 0.0
2018-Feb-17 06:31N 46°12' W 123°48'0 0.0
2018-Feb-17 06:00N 46°12' W 123°48'0 0.0
2018-Feb-17 05:28N 46°12' W 123°48'0 0.0
2018-Feb-17 05:01N 46°12' W 123°48'0 0.0
2018-Feb-17 04:31N 46°12' W 123°48'0 0.0
2018-Feb-17 03:34N 46°12' W 123°48'0 0.0
2018-Feb-17 03:16N 46°12' W 123°48'0 0.0
2018-Feb-17 03:01N 46°12' W 123°48'0 0.0
2018-Feb-17 02:31N 46°12' W 123°48'0 0.0
2018-Feb-17 02:01N 46°12' W 123°48'0 0.0
2018-Feb-17 01:31N 46°12' W 123°48'0 0.0
2018-Feb-17 01:00N 46°12' W 123°48'0 0.0
2018-Feb-17 00:31N 46°12' W 123°48'0 0.0
2018-Feb-16 23:58N 46°12' W 123°48'0 0.0
2018-Feb-16 23:28N 46°12' W 123°48'0 0.0
2018-Feb-16 22:58N 46°12' W 123°48'0 0.0
2018-Feb-16 22:30N 46°12' W 123°48'0 0.0
2018-Feb-16 22:00N 46°12' W 123°48'0 0.0
2018-Feb-16 21:31N 46°12' W 123°48'0 0.0
2018-Feb-16 20:43N 46°12' W 123°48'0 0.0
2018-Feb-16 20:25N 46°12' W 123°48'0 0.0
2018-Feb-16 20:01N 46°12' W 123°48'0 0.0
2018-Feb-16 19:24N 46°12' W 123°48'0 0.0
2018-Feb-16 19:00N 46°12' W 123°48'0 0.0
2018-Feb-16 18:28N 46°12' W 123°48'0 0.0
2018-Feb-16 17:58N 46°12' W 123°48'0 0.0
2018-Feb-16 17:31N 46°12' W 123°48'0 0.0
2018-Feb-16 17:00N 46°12' W 123°48'0 0.0
2018-Feb-16 16:07N 46°12' W 123°48'0 0.0
2018-Feb-16 15:52N 46°12' W 123°48'0 0.0
2018-Feb-16 15:31N 46°12' W 123°48'0 0.0
2018-Feb-16 15:01N 46°12' W 123°48'0 0.0
2018-Feb-16 14:28N 46°12' W 123°48'0 0.0
2018-Feb-16 14:01N 46°12' W 123°48'0 0.0
2018-Feb-16 13:30N 46°12' W 123°48'0 0.0
2018-Feb-16 13:00N 46°12' W 123°48'0 0.0
2018-Feb-16 12:30N 46°12' W 123°48'0 0.0
2018-Feb-16 11:46N 46°12' W 123°48'0 0.0
2018-Feb-16 11:31N 46°12' W 123°48'0 0.0
2018-Feb-16 11:01N 46°12' W 123°48'0 0.0
2018-Feb-16 10:31N 46°12' W 123°48'0 0.0
2018-Feb-16 09:57N 46°12' W 123°48'0 0.0
2018-Feb-16 08:58N 46°12' W 123°48'0 0.0
2018-Feb-16 08:30N 46°12' W 123°48'0 0.0
2018-Feb-16 08:01N 46°12' W 123°48'0 0.0
2018-Feb-16 07:30N 46°12' W 123°48'0 0.0
2018-Feb-16 07:00N 46°12' W 123°48'0 0.0
2018-Feb-16 06:31N 46°12' W 123°48'0 0.0
2018-Feb-16 06:01N 46°12' W 123°48'0 0.0
2018-Feb-16 05:31N 46°12' W 123°48'0 0.0
2018-Feb-16 05:01N 46°12' W 123°48'0 0.0
2018-Feb-16 04:30N 46°12' W 123°48'0 0.0
2018-Feb-16 04:01N 46°12' W 123°48'0 0.0
2018-Feb-16 03:31N 46°12' W 123°48'0 0.0
2018-Feb-16 03:01N 46°12' W 123°48'0 0.0
2018-Feb-16 02:28N 46°12' W 123°48'0 0.0
2018-Feb-16 02:01N 46°12' W 123°48'0 0.0
2018-Feb-16 01:31N 46°12' W 123°48'0 0.0
2018-Feb-16 01:00N 46°12' W 123°48'0 0.0
2018-Feb-16 00:25N 46°12' W 123°48'0 0.0
2018-Feb-16 00:01N 46°12' W 123°48'0 0.0
2018-Feb-15 23:31N 46°12' W 123°48'0 0.0
2018-Feb-15 23:00N 46°12' W 123°48'0 0.0
2018-Feb-15 22:30N 46°12' W 123°48'0 0.0
2018-Feb-15 22:01N 46°12' W 123°48'0 0.0
2018-Feb-15 21:30N 46°12' W 123°48'0 0.0
2018-Feb-15 21:01N 46°12' W 123°48'1 1.8
2018-Feb-15 20:31N 46°12' W 123°47'612.4
2018-Feb-15 20:01N 46°15' W 123°39'612.6
2018-Feb-15 19:30N 46°16' W 123°30'5 9.4
2018-Feb-15 19:01N 46°13' W 123°25'0 0.6
2018-Feb-15 18:20N 46°13' W 123°26'2 7.7
2018-Feb-15 18:00N 46°11' W 123°25'2 4.8
2018-Feb-15 17:31N 46°13' W 123°25'0 1.0
2018-Feb-15 17:00N 46°13' W 123°26'2 4.6
2018-Feb-15 16:31N 46°10' W 123°25'3 6.7
2018-Feb-15 16:01N 46°14' W 123°25'4 8.4
2018-Feb-15 15:31N 46°16' W 123°30'713.0
2018-Feb-15 15:00N 46°15' W 123°40'612.6
2018-Feb-15 14:30N 46°12' W 123°48'0 0.9
2018-Feb-15 14:00N 46°12' W 123°48'0 0.0
2018-Feb-15 13:30N 46°12' W 123°48'0 0.0
2018-Feb-15 13:00N 46°12' W 123°48'0 0.0
2018-Feb-15 12:21N 46°12' W 123°48'0 0.0
2018-Feb-15 12:00N 46°12' W 123°48'0 0.0
2018-Feb-15 11:12N 46°12' W 123°48'0 0.0
2018-Feb-15 10:54N 46°12' W 123°48'0 0.0
2018-Feb-15 10:30N 46°12' W 123°48'0 0.0
2018-Feb-15 10:00N 46°12' W 123°48'0 0.0
2018-Feb-15 09:30N 46°12' W 123°48'0 0.0
2018-Feb-15 09:00N 46°12' W 123°48'0 0.0
2018-Feb-15 08:30N 46°12' W 123°48'0 0.0
2018-Feb-15 07:57N 46°12' W 123°48'0 0.0
2018-Feb-15 07:30N 46°12' W 123°48'0 0.0
2018-Feb-15 07:00N 46°12' W 123°48'0 0.0
2018-Feb-15 06:30N 46°12' W 123°48'0 0.0
2018-Feb-15 06:00N 46°12' W 123°48'0 0.0
2018-Feb-15 05:30N 46°12' W 123°48'0 0.0
2018-Feb-15 05:00N 46°12' W 123°48'0 0.0
2018-Feb-15 04:30N 46°12' W 123°48'0 0.0
2018-Feb-15 03:54N 46°12' W 123°48'0 0.0
2018-Feb-15 03:30N 46°12' W 123°48'0 0.0
2018-Feb-15 03:00N 46°12' W 123°48'0 0.0
2018-Feb-15 02:30N 46°12' W 123°48'0 0.0
2018-Feb-15 02:00N 46°12' W 123°48'0 0.0
2018-Feb-15 01:30N 46°12' W 123°48'0 0.0
2018-Feb-15 00:57N 46°12' W 123°48'0 0.0
2018-Feb-15 00:30N 46°12' W 123°48'0 0.0
2018-Feb-15 00:00N 46°12' W 123°48'0 0.0
2018-Feb-14 23:30N 46°12' W 123°48'0 0.0
2018-Feb-14 23:00N 46°12' W 123°48'0 0.0
2018-Feb-14 22:30N 46°12' W 123°48'0 0.0
2018-Feb-14 22:00N 46°12' W 123°48'0 0.0
2018-Feb-14 21:30N 46°12' W 123°48'0 0.0
2018-Feb-14 21:00N 46°12' W 123°48'0 0.0
2018-Feb-14 20:27N 46°12' W 123°48'0 0.0
2018-Feb-14 20:00N 46°12' W 123°48'0 0.0
2018-Feb-14 19:30N 46°12' W 123°48'2 2.5
2018-Feb-14 18:54N 46°12' W 123°50'0 1.2
2018-Feb-14 18:30N 46°12' W 123°51'0 0.7
2018-Feb-14 18:01N 46°12' W 123°51'3 5.1
2018-Feb-14 17:31N 46°12' W 123°55'1 1.5
2018-Feb-14 17:00N 46°11' W 123°54'2 3.1
2018-Feb-14 16:31N 46°12' W 123°52'1 1.9
2018-Feb-14 15:48N 46°11' W 123°54'1 2.0
2018-Feb-14 15:30N 46°11' W 123°53'3 6.1
2018-Feb-14 15:00N 46°12' W 123°49'0 0.8
2018-Feb-14 14:29N 46°12' W 123°48'0 0.0
2018-Feb-14 13:56N 46°12' W 123°48'0 0.0
2018-Feb-14 13:29N 46°12' W 123°48'22592176.0
2018-Feb-14 12:27N 34°42' W 076°41'22592125.4
2018-Feb-14 11:23N 46°12' W 123°48'0 0.0
2018-Feb-14 10:59N 46°12' W 123°48'0 0.0
2018-Feb-14 10:29N 46°12' W 123°48'0 0.0
2018-Feb-14 09:59N 46°12' W 123°48'0 0.0
2018-Feb-14 09:29N 46°12' W 123°48'0 0.0
2018-Feb-14 08:59N 46°12' W 123°48'0 0.0
2018-Feb-14 08:29N 46°12' W 123°48'0 0.0
2018-Feb-14 07:59N 46°12' W 123°48'0 0.0
2018-Feb-14 07:29N 46°12' W 123°48'0 0.0
2018-Feb-14 06:59N 46°12' W 123°48'0 0.0
2018-Feb-14 06:29N 46°12' W 123°48'0 0.0
2018-Feb-14 05:59N 46°12' W 123°48'0 0.0
2018-Feb-14 05:29N 46°12' W 123°48'0 0.0
2018-Feb-14 04:59N 46°12' W 123°48'0 0.0
2018-Feb-14 04:29N 46°12' W 123°48'0 0.0
2018-Feb-14 03:56N 46°12' W 123°48'0 0.0
2018-Feb-14 03:29N 46°12' W 123°48'0 0.0
2018-Feb-14 02:56N 46°12' W 123°48'0 0.0
2018-Feb-14 02:29N 46°12' W 123°48'0 0.0
2018-Feb-14 01:59N 46°12' W 123°48'0 0.0
2018-Feb-14 01:26N 46°12' W 123°48'2 3.9
2018-Feb-14 01:00N 46°12' W 123°51'4 7.5
2018-Feb-14 00:31N 46°12' W 123°56'612.0
2018-Feb-14 00:01N 46°16' W 124°03'1 1.7
2018-Feb-13 23:30N 46°16' W 124°02'816.4
2018-Feb-13 23:01N 46°11' W 123°51'3 6.1
2018-Feb-13 22:31N 46°12' W 123°56'610.0
2018-Feb-13 21:54N 46°16' W 124°03'5 9.0
2018-Feb-13 21:19N 46°13' W 123°57'4 5.5
2018-Feb-13 20:36N 46°11' W 123°51'0 0.0
2018-Feb-13 20:31N 46°11' W 123°51'  

Dump ship's entire track history